Bayview Gardens, Illinois
Current Conditions -  °F | °C
As of 10:54 PM on Wednesday 17 Dec 2014 (Local Time) from KPIA Reporting Station
Clear Clear  
Wind Chill: 16°   Ceiling: Unl
Heat Index: 23°   Visibility: 10mi
Dew Point: 17°   Wind: 6mph
Humidity: 78%   Direction: 40°NE
Pressure: 30.3"   Gusts: NA
Location:  40.7043°N, 89.529°W
Report Text: KPIA 180454Z 04005KT 10SM CLR M05/M08 A3030 RMK AO2 SLP268 T10501083
Loading
Personal Weather Stations






























Interactive Weather Map New forecast layout! Learn more

10-Day Weather Forecast

Advertisements
Track Severe Weather on mobile